createdAt,value
2022-10-22T00:02:28.059Z,4.55
2022-10-22T00:04:57.293Z,5.05
2022-10-22T00:07:24.678Z,6.22
2022-10-22T00:09:51.651Z,5.90
2022-10-22T00:12:18.866Z,6.95
2022-10-22T00:14:45.926Z,5.13
2022-10-22T00:17:12.786Z,5.13
2022-10-22T00:19:40.356Z,5.40
2022-10-22T00:22:08.964Z,5.00
2022-10-22T00:24:37.299Z,5.05
2022-10-22T00:27:05.283Z,5.35
2022-10-22T00:29:32.372Z,5.95
2022-10-22T00:31:59.260Z,5.78
2022-10-22T00:34:26.185Z,5.15
2022-10-22T00:36:53.573Z,4.82
2022-10-22T00:39:23.982Z,5.05
2022-10-22T00:41:52.327Z,4.75
2022-10-22T00:44:56.671Z,4.30
2022-10-22T00:47:24.908Z,5.00
2022-10-22T00:49:52.902Z,5.03
2022-10-22T00:52:21.394Z,5.22
2022-10-22T00:54:48.887Z,4.05
2022-10-22T00:57:17.002Z,4.10
2022-10-22T00:59:43.928Z,5.13
2022-10-22T01:02:10.782Z,5.03
2022-10-22T01:04:38.007Z,4.45
2022-10-22T01:07:05.198Z,5.70
2022-10-22T01:09:38.102Z,4.32
2022-10-22T01:12:19.053Z,5.15
2022-10-22T01:15:07.215Z,4.57
2022-10-22T01:17:43.203Z,4.88
2022-10-22T01:20:41.676Z,3.88
2022-10-22T01:23:26.874Z,3.95
2022-10-22T01:26:13.271Z,4.30
2022-10-22T01:29:01.396Z,4.65
2022-10-22T01:31:35.412Z,3.80
2022-10-22T01:34:03.745Z,3.95
2022-10-22T01:36:33.323Z,4.45
2022-10-22T01:39:02.211Z,4.03
2022-10-22T01:41:29.937Z,4.97
2022-10-22T01:43:57.106Z,4.05
2022-10-22T01:46:27.311Z,4.05
2022-10-22T01:49:20.138Z,4.40
2022-10-22T01:52:07.872Z,4.15
2022-10-22T01:54:52.064Z,3.85
2022-10-22T01:57:36.980Z,3.92
2022-10-22T02:00:12.361Z,3.72
2022-10-22T02:02:44.924Z,3.53
2022-10-22T02:05:11.733Z,3.30
2022-10-22T02:08:12.326Z,4.32
2022-10-22T02:10:42.677Z,3.47
2022-10-22T02:13:14.727Z,3.90
2022-10-22T02:15:46.055Z,3.65
2022-10-22T02:18:14.076Z,3.75
2022-10-22T02:20:42.488Z,3.80
2022-10-22T02:23:11.147Z,3.65
2022-10-22T02:25:42.074Z,4.10
2022-10-22T02:28:19.120Z,3.50
2022-10-22T02:30:52.264Z,3.03
2022-10-22T02:33:23.738Z,3.85
2022-10-22T02:35:53.230Z,3.28
2022-10-22T02:38:21.514Z,3.78
2022-10-22T02:40:48.498Z,3.13
2022-10-22T02:43:15.313Z,3.55
2022-10-22T02:45:42.195Z,3.95
2022-10-22T02:48:09.060Z,3.20
2022-10-22T02:50:36.038Z,3.55
2022-10-22T02:53:02.966Z,4.03
2022-10-22T02:55:30.069Z,3.22
2022-10-22T02:57:56.865Z,4.57
2022-10-22T03:00:23.772Z,3.00
2022-10-22T03:02:50.680Z,3.90
2022-10-22T03:05:20.797Z,3.50
2022-10-22T03:07:47.655Z,3.30
2022-10-22T03:10:14.725Z,3.20
2022-10-22T03:12:41.555Z,3.40
2022-10-22T03:15:08.579Z,2.80
2022-10-22T03:17:35.435Z,3.92
2022-10-22T03:20:02.370Z,4.15
2022-10-22T03:22:30.893Z,3.05
2022-10-22T03:25:03.343Z,2.67
2022-10-22T03:27:30.657Z,2.97
2022-10-22T03:29:59.931Z,2.85
2022-10-22T03:32:26.748Z,3.88
2022-10-22T03:34:53.632Z,2.88
2022-10-22T03:37:20.744Z,2.63
2022-10-22T03:39:47.785Z,3.30
2022-10-22T03:42:14.676Z,4.07
2022-10-22T03:44:41.769Z,2.63
2022-10-22T03:47:08.790Z,2.38
2022-10-22T03:49:35.827Z,2.95
2022-10-22T03:52:20.643Z,3.40
2022-10-22T03:54:47.487Z,3.50
2022-10-22T03:57:14.747Z,2.50
2022-10-22T03:59:47.218Z,3.17
2022-10-22T04:02:14.785Z,2.45
2022-10-22T04:04:41.761Z,2.90
2022-10-22T04:07:08.742Z,2.92
2022-10-22T04:09:36.163Z,2.65
2022-10-22T04:12:05.733Z,2.88
2022-10-22T04:14:32.682Z,2.80
2022-10-22T04:16:59.517Z,2.40
2022-10-22T04:19:26.389Z,3.67
2022-10-22T04:21:53.210Z,2.33
2022-10-22T04:24:20.022Z,2.80
2022-10-22T04:26:46.850Z,2.55
2022-10-22T04:29:16.092Z,2.58
2022-10-22T04:31:43.614Z,2.17
2022-10-22T04:34:10.412Z,2.35
2022-10-22T04:36:37.514Z,2.10
2022-10-22T04:39:05.487Z,2.63
2022-10-22T04:41:35.475Z,2.00
2022-10-22T04:44:03.216Z,1.83
2022-10-22T04:46:33.719Z,2.25
2022-10-22T04:49:01.207Z,2.83
2022-10-22T04:51:28.188Z,2.10
2022-10-22T04:53:55.049Z,3.08
2022-10-22T04:56:27.373Z,2.75
2022-10-22T04:59:02.649Z,2.17
2022-10-22T05:01:41.613Z,2.40
2022-10-22T05:04:14.509Z,2.13
2022-10-22T05:06:41.515Z,2.25
2022-10-22T05:09:12.151Z,3.65
2022-10-22T05:11:41.928Z,2.40
2022-10-22T05:14:10.316Z,3.55
2022-10-22T05:16:38.430Z,4.05
2022-10-22T05:19:06.622Z,3.25
2022-10-22T05:21:33.682Z,2.55
2022-10-22T05:24:00.637Z,1.95
2022-10-22T05:26:29.261Z,2.85
2022-10-22T05:28:56.557Z,3.85
2022-10-22T05:31:23.922Z,2.00
2022-10-22T05:33:50.934Z,3.15
2022-10-22T05:36:20.455Z,1.70
2022-10-22T05:38:47.567Z,1.65
2022-10-22T05:41:16.996Z,1.92
2022-10-22T05:43:44.069Z,2.78
2022-10-22T05:46:16.605Z,4.15
2022-10-22T05:48:55.197Z,2.67
2022-10-22T05:51:23.053Z,1.60
2022-10-22T05:53:56.943Z,3.05
2022-10-22T05:56:24.545Z,2.80
2022-10-22T05:58:52.180Z,1.70
2022-10-22T06:01:28.962Z,2.22
2022-10-22T06:03:57.465Z,1.98
2022-10-22T06:06:27.020Z,2.47
2022-10-22T06:08:56.030Z,1.75
2022-10-22T06:11:24.068Z,1.77
2022-10-22T06:13:51.659Z,1.50
2022-10-22T06:16:18.652Z,3.28
2022-10-22T06:18:45.679Z,2.65
2022-10-22T06:21:14.867Z,2.40
2022-10-22T06:23:42.805Z,1.65
2022-10-22T06:26:11.237Z,1.67
2022-10-22T06:28:38.968Z,1.67
2022-10-22T06:31:06.168Z,1.60
2022-10-22T06:33:34.553Z,2.10
2022-10-22T06:36:07.762Z,1.88
2022-10-22T06:38:34.910Z,1.73
2022-10-22T06:41:07.562Z,1.60
2022-10-22T06:43:34.629Z,1.80
2022-10-22T06:46:03.622Z,1.50
2022-10-22T06:48:30.832Z,2.05
2022-10-22T06:51:02.731Z,1.55
2022-10-22T06:53:30.205Z,1.67
2022-10-22T06:55:57.129Z,2.75
2022-10-22T06:58:24.466Z,5.05
2022-10-22T07:01:01.422Z,2.40
2022-10-22T07:03:28.405Z,2.42
2022-10-22T07:05:55.480Z,2.28
2022-10-22T07:08:22.277Z,1.90
2022-10-22T07:10:49.131Z,2.35
2022-10-22T07:13:16.235Z,2.35
2022-10-22T07:15:43.098Z,1.30
2022-10-22T07:18:09.967Z,1.70
2022-10-22T07:20:36.851Z,7.03
2022-10-22T07:23:03.720Z,8.98
2022-10-22T07:25:30.619Z,3.00
2022-10-22T07:27:57.466Z,1.75
2022-10-22T07:30:24.331Z,2.70
2022-10-22T07:32:51.362Z,2.55
2022-10-22T07:35:18.414Z,2.00
2022-10-22T07:37:45.385Z,2.10
2022-10-22T07:40:12.511Z,1.30
2022-10-22T07:42:39.452Z,1.83
2022-10-22T07:45:07.015Z,1.80
2022-10-22T07:47:34.455Z,3.17
2022-10-22T07:50:01.296Z,2.65
2022-10-22T07:52:28.361Z,3.30
2022-10-22T07:54:55.290Z,2.40
2022-10-22T07:57:22.161Z,3.17
2022-10-22T07:59:49.094Z,2.35
2022-10-22T08:02:15.955Z,1.45
2022-10-22T08:04:42.876Z,4.57
2022-10-22T08:07:09.798Z,3.08
2022-10-22T08:09:36.672Z,2.78
2022-10-22T08:12:03.821Z,3.22
2022-10-22T08:14:31.378Z,2.38
2022-10-22T08:16:58.439Z,3.60
2022-10-22T08:19:25.463Z,1.73
2022-10-22T08:21:52.324Z,1.48
2022-10-22T08:24:19.213Z,3.92
2022-10-22T08:26:46.207Z,2.53
2022-10-22T08:29:13.135Z,1.38
2022-10-22T08:31:40.050Z,3.35
2022-10-22T08:34:08.568Z,4.82
2022-10-22T08:36:35.763Z,2.03
2022-10-22T08:39:02.686Z,2.85
2022-10-22T08:41:29.610Z,3.33
2022-10-22T08:44:28.542Z,6.68
2022-10-22T08:47:24.922Z,3.42
2022-10-22T08:49:53.972Z,5.28
2022-10-22T08:52:22.143Z,3.53
2022-10-22T08:54:53.822Z,5.85
2022-10-22T08:57:29.068Z,4.30
2022-10-22T09:00:32.963Z,4.32
2022-10-22T09:03:34.575Z,7.03
2022-10-22T09:06:24.383Z,3.63
2022-10-22T09:08:53.056Z,7.25
2022-10-22T09:11:33.361Z,4.43
2022-10-22T09:14:01.802Z,3.72
2022-10-22T09:17:14.142Z,8.93
2022-10-22T09:20:07.092Z,3.30
2022-10-22T09:23:03.390Z,3.35
2022-10-22T09:25:34.071Z,6.43
2022-10-22T09:28:01.071Z,9.77
2022-10-22T09:30:35.002Z,6.88
2022-10-22T09:33:07.827Z,4.10
2022-10-22T09:35:47.442Z,11.75
2022-10-22T09:38:16.658Z,6.68
2022-10-22T09:40:51.413Z,5.13
2022-10-22T09:43:19.246Z,5.10
2022-10-22T09:45:47.255Z,6.80
2022-10-22T09:48:31.191Z,6.55
2022-10-22T09:51:13.456Z,12.23
2022-10-22T09:53:46.346Z,5.05
2022-10-22T09:56:38.158Z,2.30
2022-10-22T09:59:05.139Z,10.30
2022-10-22T10:01:35.245Z,3.92
2022-10-22T10:04:10.847Z,3.83
2022-10-22T10:06:40.699Z,6.88
2022-10-22T10:09:18.317Z,4.03
2022-10-22T10:12:13.013Z,4.10
2022-10-22T10:14:49.209Z,3.22
2022-10-22T10:17:40.521Z,4.05
2022-10-22T10:20:57.354Z,8.40
2022-10-22T10:24:11.620Z,8.73
2022-10-22T10:26:58.360Z,6.68
2022-10-22T10:29:34.651Z,7.10
2022-10-22T10:32:13.504Z,4.63
2022-10-22T10:34:48.687Z,6.57
2022-10-22T10:37:41.896Z,4.20
2022-10-22T10:40:28.892Z,7.28
2022-10-22T10:43:01.074Z,11.10
2022-10-22T10:46:01.931Z,6.05
2022-10-22T10:48:42.866Z,7.88
2022-10-22T10:51:54.478Z,3.53
2022-10-22T10:56:54.587Z,8.27
2022-10-22T10:59:52.404Z,5.60
2022-10-22T11:02:28.169Z,6.43
2022-10-22T11:05:26.011Z,6.00
2022-10-22T11:07:58.763Z,5.38
2022-10-22T11:10:28.590Z,2.50
2022-10-22T11:13:35.116Z,5.13
2022-10-22T11:16:18.293Z,3.75
2022-10-22T11:19:03.739Z,2.65
2022-10-22T11:21:42.889Z,2.28
2022-10-22T11:24:36.220Z,2.92
2022-10-22T11:27:08.971Z,3.00
2022-10-22T11:29:43.385Z,3.40
2022-10-22T11:32:18.826Z,2.40
2022-10-22T11:34:50.080Z,4.03
2022-10-22T11:37:17.834Z,2.42
2022-10-22T11:40:27.615Z,2.28
2022-10-22T11:42:57.960Z,2.63
2022-10-22T11:45:24.930Z,2.27
2022-10-22T11:48:08.632Z,2.65
2022-10-22T11:51:00.340Z,3.90
2022-10-22T11:53:35.106Z,1.98
2022-10-22T11:56:23.554Z,1.60
2022-10-22T11:58:53.931Z,3.83
2022-10-22T12:01:25.333Z,2.05
2022-10-22T12:03:59.724Z,1.25
2022-10-22T12:06:29.752Z,2.55
2022-10-22T12:09:01.623Z,3.13
2022-10-22T12:11:41.858Z,1.77
2022-10-22T12:14:31.725Z,1.77
2022-10-22T12:17:05.852Z,2.83
2022-10-22T12:19:38.316Z,1.60
2022-10-22T12:22:17.317Z,1.27
2022-10-22T12:24:48.106Z,1.77
2022-10-22T12:27:37.762Z,2.92
2022-10-22T12:30:22.618Z,1.98
2022-10-22T12:32:54.719Z,2.75
2022-10-22T12:35:28.371Z,1.95
2022-10-22T12:38:05.719Z,1.65
2022-10-22T12:40:35.990Z,2.33
2022-10-22T12:43:12.308Z,2.03
2022-10-22T12:45:40.812Z,1.58
2022-10-22T12:48:25.180Z,1.25
2022-10-22T12:50:58.930Z,1.35
2022-10-22T12:53:38.080Z,1.20
2022-10-22T12:56:07.776Z,2.35
2022-10-22T12:58:52.401Z,0.98
2022-10-22T13:01:19.715Z,1.30
2022-10-22T13:03:52.583Z,1.75
2022-10-22T13:06:19.429Z,1.40
2022-10-22T13:09:04.668Z,1.88
2022-10-22T13:11:34.285Z,2.67
2022-10-22T13:14:06.080Z,1.42
2022-10-22T13:16:33.496Z,4.13
2022-10-22T13:19:00.417Z,1.92
2022-10-22T13:21:37.796Z,1.17
2022-10-22T13:24:21.275Z,1.45
2022-10-22T13:26:53.677Z,1.38
2022-10-22T13:29:22.793Z,1.60
2022-10-22T13:31:52.616Z,1.10
2022-10-22T13:34:25.797Z,1.08
2022-10-22T13:36:52.912Z,1.30
2022-10-22T13:39:23.145Z,1.40
2022-10-22T13:41:51.440Z,1.30
2022-10-22T13:44:21.450Z,1.13
2022-10-22T13:46:48.908Z,1.35
2022-10-22T13:49:19.139Z,3.00
2022-10-22T13:51:47.040Z,2.25
2022-10-22T13:54:17.997Z,3.30
2022-10-22T13:56:44.925Z,2.17
2022-10-22T13:59:11.895Z,2.40
2022-10-22T14:01:39.378Z,2.33
2022-10-22T14:04:08.511Z,1.75
2022-10-22T14:09:12.181Z,2.90
2022-10-22T14:11:39.332Z,2.53
2022-10-22T14:14:09.070Z,1.60
2022-10-22T14:16:37.975Z,1.70
2022-10-22T14:19:07.957Z,1.83
2022-10-22T14:21:38.019Z,9.77
2022-10-22T14:24:07.238Z,6.68
2022-10-22T14:26:36.696Z,4.25
2022-10-22T14:29:09.198Z,11.35
2022-10-22T14:34:26.542Z,26.45
2022-10-22T14:36:53.448Z,18.45
2022-10-22T14:39:21.819Z,27.13
2022-10-22T14:41:48.702Z,18.75
2022-10-22T14:44:15.875Z,26.60
2022-10-22T14:46:44.669Z,16.80
2022-10-22T14:49:11.991Z,23.17
2022-10-22T14:51:39.256Z,12.02
2022-10-22T14:54:06.141Z,20.38
2022-10-22T14:56:33.233Z,15.23
2022-10-22T14:59:00.165Z,22.33
2022-10-22T15:01:27.148Z,15.88
2022-10-22T15:03:54.233Z,16.45
2022-10-22T15:06:21.137Z,13.27
2022-10-22T15:08:48.231Z,11.30
2022-10-22T15:11:15.388Z,15.40
2022-10-22T15:13:42.525Z,11.45
2022-10-22T15:16:11.650Z,10.10
2022-10-22T15:18:38.691Z,9.73
2022-10-22T15:21:13.698Z,10.15
2022-10-22T15:23:41.303Z,12.27
2022-10-22T15:26:09.152Z,13.07
2022-10-22T15:28:37.545Z,8.57
2022-10-22T15:31:05.621Z,11.48
2022-10-22T15:33:32.745Z,7.85
2022-10-22T15:36:08.995Z,13.40
2022-10-22T15:38:36.136Z,7.82
2022-10-22T15:41:07.625Z,7.05
2022-10-22T15:43:35.233Z,10.43
2022-10-22T15:46:16.517Z,8.57
2022-10-22T15:51:16.235Z,6.35
2022-10-22T15:53:43.740Z,14.20
2022-10-22T15:56:12.289Z,12.57
2022-10-22T15:58:39.255Z,3.70
2022-10-22T16:01:11.860Z,6.22
2022-10-22T16:03:39.366Z,3.45
2022-10-22T16:06:07.973Z,5.25
2022-10-22T16:08:35.397Z,2.58
2022-10-22T16:11:02.466Z,4.88
2022-10-22T16:13:29.549Z,4.43
2022-10-22T16:15:56.440Z,2.88
2022-10-22T16:18:23.954Z,4.22
2022-10-22T16:20:51.178Z,1.83
2022-10-22T16:23:19.303Z,2.70
2022-10-22T16:25:46.957Z,4.20
2022-10-22T16:28:14.377Z,6.47
2022-10-22T16:30:42.037Z,4.43
2022-10-22T16:33:10.800Z,4.82
2022-10-22T16:35:42.678Z,5.30
2022-10-22T16:38:11.103Z,3.75
2022-10-22T16:40:38.512Z,3.88
2022-10-22T16:43:06.186Z,3.33
2022-10-22T16:45:33.193Z,4.70
2022-10-22T16:48:00.428Z,6.90
2022-10-22T16:50:27.527Z,6.57
2022-10-22T16:52:54.432Z,7.00
2022-10-22T16:55:21.597Z,12.35
2022-10-22T16:57:52.630Z,14.85
2022-10-22T17:00:20.688Z,18.50
2022-10-22T17:02:54.706Z,17.63
2022-10-22T17:05:22.387Z,17.40
2022-10-22T17:07:50.041Z,16.90
2022-10-22T17:10:20.095Z,13.43
2022-10-22T17:12:49.066Z,15.25
2022-10-22T17:15:16.283Z,15.27
2022-10-22T17:17:43.797Z,15.38
2022-10-22T17:20:11.936Z,14.70
2022-10-22T17:22:39.213Z,15.57
2022-10-22T17:25:25.811Z,14.02
2022-10-22T17:27:55.458Z,11.90
2022-10-22T17:30:26.483Z,11.50
2022-10-22T17:32:55.249Z,10.05
2022-10-22T17:35:22.479Z,13.65
2022-10-22T17:37:49.561Z,10.85
2022-10-22T17:40:16.672Z,10.43
2022-10-22T17:42:45.767Z,10.90
2022-10-22T17:45:12.840Z,10.95
2022-10-22T17:47:40.094Z,9.57
2022-10-22T17:50:08.080Z,6.63
2022-10-22T17:52:35.861Z,6.65
2022-10-22T17:55:04.001Z,7.88
2022-10-22T17:57:30.995Z,5.85
2022-10-22T17:59:58.265Z,7.97
2022-10-22T18:02:25.358Z,11.73
2022-10-22T18:04:53.001Z,6.47
2022-10-22T18:07:21.346Z,6.65
2022-10-22T18:09:48.562Z,7.40
2022-10-22T18:12:18.516Z,5.43
2022-10-22T18:14:47.344Z,7.05
2022-10-22T18:20:01.846Z,3.08
2022-10-22T18:22:28.838Z,4.03
2022-10-22T18:24:55.802Z,4.68
2022-10-22T18:27:23.395Z,2.92
2022-10-22T18:29:51.190Z,3.08
2022-10-22T18:32:18.098Z,3.55
2022-10-22T18:34:45.220Z,1.80
2022-10-22T18:37:12.690Z,3.78
2022-10-22T18:39:39.716Z,3.85
2022-10-22T18:42:07.675Z,4.93
2022-10-22T18:44:36.422Z,4.95
2022-10-22T18:47:03.554Z,5.35
2022-10-22T18:49:30.657Z,2.25
2022-10-22T18:51:57.756Z,3.20
2022-10-22T18:54:25.075Z,4.32
2022-10-22T18:56:53.393Z,5.88
2022-10-22T18:59:23.155Z,5.88
2022-10-22T19:01:52.464Z,3.80
2022-10-22T19:04:19.534Z,2.83
2022-10-22T19:06:46.685Z,3.03
2022-10-22T19:09:16.502Z,2.72
2022-10-22T19:11:45.523Z,3.88
2022-10-22T19:14:15.278Z,1.83
2022-10-22T19:16:42.241Z,3.70
2022-10-22T19:19:09.421Z,4.60
2022-10-22T19:21:38.756Z,2.92
2022-10-22T19:24:06.843Z,4.70
2022-10-22T19:26:35.054Z,4.45
2022-10-22T19:29:03.173Z,5.13
2022-10-22T19:31:31.522Z,4.03
2022-10-22T19:34:03.627Z,4.97
2022-10-22T19:36:32.996Z,4.95
2022-10-22T19:39:00.560Z,6.03
2022-10-22T19:41:29.683Z,3.92
2022-10-22T19:43:59.739Z,4.43
2022-10-22T19:46:29.089Z,4.03
2022-10-22T19:48:57.578Z,3.88
2022-10-22T19:51:28.118Z,3.13
2022-10-22T19:54:04.224Z,3.97
2022-10-22T19:56:32.950Z,7.68
2022-10-22T19:59:00.228Z,10.60
2022-10-22T20:01:27.843Z,7.35
2022-10-22T20:03:55.274Z,5.05
2022-10-22T20:06:23.038Z,2.72
2022-10-22T20:08:55.978Z,2.78
2022-10-22T20:11:26.717Z,2.88
2022-10-22T20:13:54.637Z,3.13
2022-10-22T20:16:24.976Z,4.05
2022-10-22T20:18:54.777Z,4.10
2022-10-22T20:21:24.253Z,2.83
2022-10-22T20:23:56.701Z,3.22
2022-10-22T20:26:24.944Z,4.00
2022-10-22T20:28:54.056Z,2.78
2022-10-22T20:31:22.950Z,3.38
2022-10-22T20:33:51.160Z,5.65
2022-10-22T20:36:21.514Z,2.30
2022-10-22T20:38:51.568Z,4.30
2022-10-22T20:41:23.309Z,3.35
2022-10-22T20:43:53.449Z,2.97
2022-10-22T20:46:24.877Z,4.28
2022-10-22T20:48:53.884Z,2.88
2022-10-22T20:51:21.273Z,3.08
2022-10-22T20:53:48.480Z,2.55
2022-10-22T20:56:16.855Z,1.88
2022-10-22T20:58:48.564Z,3.92
2022-10-22T21:01:21.984Z,2.47
2022-10-22T21:03:50.750Z,1.98
2022-10-22T21:06:18.464Z,3.30
2022-10-22T21:08:45.460Z,2.58
2022-10-22T21:11:12.905Z,1.65
2022-10-22T21:13:39.960Z,3.10
2022-10-22T21:16:11.077Z,2.35
2022-10-22T21:21:06.891Z,2.17
2022-10-22T21:23:35.714Z,2.30
2022-10-22T21:26:03.385Z,3.45
2022-10-22T21:28:32.604Z,2.33
2022-10-22T21:30:59.665Z,3.60
2022-10-22T21:33:26.867Z,3.05
2022-10-22T21:35:55.691Z,5.32
2022-10-22T21:38:25.021Z,2.00
2022-10-22T21:40:52.481Z,2.47
2022-10-22T21:43:19.422Z,2.15
2022-10-22T21:45:46.770Z,1.70
2022-10-22T21:48:14.703Z,2.75
2022-10-22T21:50:43.863Z,2.92
2022-10-22T21:53:12.540Z,2.47
2022-10-22T21:55:42.754Z,1.52
2022-10-22T21:58:09.774Z,2.50
2022-10-22T22:00:36.982Z,1.83
2022-10-22T22:03:07.905Z,2.65
2022-10-22T22:05:34.975Z,1.23
2022-10-22T22:08:01.907Z,1.65
2022-10-22T22:10:30.242Z,2.08
2022-10-22T22:12:57.205Z,1.00
2022-10-22T22:15:24.203Z,2.63
2022-10-22T22:17:51.306Z,0.98
2022-10-22T22:20:18.305Z,1.40
2022-10-22T22:22:45.220Z,1.38
2022-10-22T22:25:12.098Z,1.15
2022-10-22T22:27:39.291Z,2.53
2022-10-22T22:30:07.073Z,1.27
2022-10-22T22:32:34.034Z,1.35
2022-10-22T22:35:01.018Z,2.90
2022-10-22T22:37:28.258Z,1.23
2022-10-22T22:39:55.328Z,2.38
2022-10-22T22:42:22.338Z,1.48
2022-10-22T22:44:49.274Z,1.95
2022-10-22T22:47:17.006Z,1.85
2022-10-22T22:49:43.939Z,1.13
2022-10-22T22:52:10.947Z,1.60
2022-10-22T22:54:37.855Z,2.47
2022-10-22T22:57:04.901Z,2.35
2022-10-22T22:59:31.730Z,1.55
2022-10-22T23:01:58.866Z,1.58
2022-10-22T23:04:26.574Z,2.00
2022-10-22T23:06:53.530Z,2.40
2022-10-22T23:12:07.977Z,1.48
2022-10-22T23:14:34.915Z,2.05
2022-10-22T23:17:01.793Z,1.45
2022-10-22T23:19:28.609Z,1.00
2022-10-22T23:21:56.536Z,1.88
2022-10-22T23:24:26.511Z,1.52
2022-10-22T23:26:55.196Z,1.65
2022-10-22T23:29:26.537Z,1.63
2022-10-22T23:31:54.565Z,1.20
2022-10-22T23:34:24.644Z,1.88
2022-10-22T23:36:52.097Z,3.47
2022-10-22T23:39:21.485Z,0.82
2022-10-22T23:41:48.984Z,1.90
2022-10-22T23:44:15.910Z,1.70
2022-10-22T23:46:43.293Z,1.65
2022-10-22T23:49:11.344Z,1.10
2022-10-22T23:51:39.263Z,1.98
2022-10-22T23:54:08.691Z,1.17
2022-10-22T23:56:36.235Z,1.95
2022-10-22T23:59:04.182Z,2.95
